sensor_id;sensor_type;location;lat;lon;timestamp;P1;durP1;ratioP1;P2;durP2;ratioP2
47367;SDS011;34646;47.964;7.982;2023-01-01T00:02:50;1.30;;;0.70;;
47367;SDS011;34646;47.964;7.982;2023-01-01T00:08:51;1.40;;;0.80;;
47367;SDS011;34646;47.964;7.982;2023-01-01T00:15:12;1.60;;;1.00;;
47367;SDS011;34646;47.964;7.982;2023-01-01T00:21:13;1.55;;;0.80;;
47367;SDS011;34646;47.964;7.982;2023-01-01T00:27:14;1.92;;;1.05;;
47367;SDS011;34646;47.964;7.982;2023-01-01T00:33:16;1.80;;;0.93;;
47367;SDS011;34646;47.964;7.982;2023-01-01T00:39:17;2.23;;;0.90;;
47367;SDS011;34646;47.964;7.982;2023-01-01T00:45:18;1.17;;;0.70;;
47367;SDS011;34646;47.964;7.982;2023-01-01T00:51:20;1.63;;;0.95;;
47367;SDS011;34646;47.964;7.982;2023-01-01T00:57:21;1.43;;;0.80;;
47367;SDS011;34646;47.964;7.982;2023-01-01T01:03:22;1.43;;;0.90;;
47367;SDS011;34646;47.964;7.982;2023-01-01T01:09:29;1.40;;;1.00;;
47367;SDS011;34646;47.964;7.982;2023-01-01T01:15:30;2.03;;;1.10;;
47367;SDS011;34646;47.964;7.982;2023-01-01T01:21:32;1.40;;;0.80;;
47367;SDS011;34646;47.964;7.982;2023-01-01T01:27:33;1.30;;;0.80;;
47367;SDS011;34646;47.964;7.982;2023-01-01T01:33:34;1.53;;;0.87;;
47367;SDS011;34646;47.964;7.982;2023-01-01T01:39:35;1.23;;;0.60;;
47367;SDS011;34646;47.964;7.982;2023-01-01T01:45:36;1.23;;;0.80;;
47367;SDS011;34646;47.964;7.982;2023-01-01T01:51:37;1.77;;;1.03;;
47367;SDS011;34646;47.964;7.982;2023-01-01T01:57:39;1.45;;;0.80;;
47367;SDS011;34646;47.964;7.982;2023-01-01T02:09:54;1.70;;;0.80;;
47367;SDS011;34646;47.964;7.982;2023-01-01T02:16:00;1.85;;;1.08;;
47367;SDS011;34646;47.964;7.982;2023-01-01T02:34:16;2.27;;;1.10;;
47367;SDS011;34646;47.964;7.982;2023-01-01T02:40:20;1.40;;;0.82;;
47367;SDS011;34646;47.964;7.982;2023-01-01T02:46:22;1.30;;;0.75;;
47367;SDS011;34646;47.964;7.982;2023-01-01T02:58:44;1.33;;;0.70;;
47367;SDS011;34646;47.964;7.982;2023-01-01T03:11:15;1.73;;;1.02;;
47367;SDS011;34646;47.964;7.982;2023-01-01T03:17:24;1.50;;;1.02;;
47367;SDS011;34646;47.964;7.982;2023-01-01T03:23:32;1.20;;;0.80;;
47367;SDS011;34646;47.964;7.982;2023-01-01T03:29:39;1.52;;;0.70;;
47367;SDS011;34646;47.964;7.982;2023-01-01T03:35:43;1.67;;;0.70;;
47367;SDS011;34646;47.964;7.982;2023-01-01T03:41:57;1.15;;;0.65;;
47367;SDS011;34646;47.964;7.982;2023-01-01T03:48:12;1.10;;;0.70;;
47367;SDS011;34646;47.964;7.982;2023-01-01T03:54:19;2.22;;;0.80;;
47367;SDS011;34646;47.964;7.982;2023-01-01T04:00:30;1.42;;;0.90;;
47367;SDS011;34646;47.964;7.982;2023-01-01T04:06:34;0.90;;;0.60;;
47367;SDS011;34646;47.964;7.982;2023-01-01T04:12:35;1.27;;;0.80;;
47367;SDS011;34646;47.964;7.982;2023-01-01T04:18:36;1.17;;;0.80;;
47367;SDS011;34646;47.964;7.982;2023-01-01T04:24:37;1.47;;;0.73;;
47367;SDS011;34646;47.964;7.982;2023-01-01T04:30:39;1.67;;;0.75;;
47367;SDS011;34646;47.964;7.982;2023-01-01T04:36:41;1.20;;;0.70;;
47367;SDS011;34646;47.964;7.982;2023-01-01T04:42:42;1.00;;;0.50;;
47367;SDS011;34646;47.964;7.982;2023-01-01T04:48:43;1.02;;;0.82;;
47367;SDS011;34646;47.964;7.982;2023-01-01T04:54:44;1.73;;;0.93;;
47367;SDS011;34646;47.964;7.982;2023-01-01T05:00:49;1.20;;;0.70;;
47367;SDS011;34646;47.964;7.982;2023-01-01T05:06:50;1.70;;;0.52;;
47367;SDS011;34646;47.964;7.982;2023-01-01T05:12:51;1.63;;;0.80;;
47367;SDS011;34646;47.964;7.982;2023-01-01T05:18:52;1.13;;;0.80;;
47367;SDS011;34646;47.964;7.982;2023-01-01T05:24:53;1.60;;;0.65;;
47367;SDS011;34646;47.964;7.982;2023-01-01T05:30:54;1.43;;;0.50;;
47367;SDS011;34646;47.964;7.982;2023-01-01T05:36:55;1.40;;;0.80;;
47367;SDS011;34646;47.964;7.982;2023-01-01T05:42:56;3.07;;;0.60;;
47367;SDS011;34646;47.964;7.982;2023-01-01T05:48:57;0.93;;;0.60;;
47367;SDS011;34646;47.964;7.982;2023-01-01T05:54:58;1.27;;;0.70;;
47367;SDS011;34646;47.964;7.982;2023-01-01T06:07:04;1.33;;;0.85;;
47367;SDS011;34646;47.964;7.982;2023-01-01T06:13:06;0.93;;;0.67;;
47367;SDS011;34646;47.964;7.982;2023-01-01T06:19:07;1.57;;;0.80;;
47367;SDS011;34646;47.964;7.982;2023-01-01T06:25:08;2.00;;;0.65;;
47367;SDS011;34646;47.964;7.982;2023-01-01T06:31:10;1.27;;;0.80;;
47367;SDS011;34646;47.964;7.982;2023-01-01T06:37:12;1.05;;;0.68;;
47367;SDS011;34646;47.964;7.982;2023-01-01T06:43:13;1.87;;;0.77;;
47367;SDS011;34646;47.964;7.982;2023-01-01T06:49:14;0.90;;;0.50;;
47367;SDS011;34646;47.964;7.982;2023-01-01T06:55:15;0.90;;;0.50;;
47367;SDS011;34646;47.964;7.982;2023-01-01T07:01:18;2.27;;;0.77;;
47367;SDS011;34646;47.964;7.982;2023-01-01T07:07:20;1.17;;;0.63;;
47367;SDS011;34646;47.964;7.982;2023-01-01T07:13:22;1.10;;;0.50;;
47367;SDS011;34646;47.964;7.982;2023-01-01T07:19:26;1.23;;;0.80;;
47367;SDS011;34646;47.964;7.982;2023-01-01T07:25:27;1.00;;;0.63;;
47367;SDS011;34646;47.964;7.982;2023-01-01T07:31:28;1.63;;;0.60;;
47367;SDS011;34646;47.964;7.982;2023-01-01T07:37:29;0.73;;;0.50;;
47367;SDS011;34646;47.964;7.982;2023-01-01T07:43:30;1.00;;;0.70;;
47367;SDS011;34646;47.964;7.982;2023-01-01T07:49:31;1.07;;;0.60;;
47367;SDS011;34646;47.964;7.982;2023-01-01T07:55:32;2.40;;;0.70;;
47367;SDS011;34646;47.964;7.982;2023-01-01T08:01:34;1.20;;;0.63;;
47367;SDS011;34646;47.964;7.982;2023-01-01T08:07:36;0.80;;;0.52;;
47367;SDS011;34646;47.964;7.982;2023-01-01T08:13:37;0.65;;;0.52;;
47367;SDS011;34646;47.964;7.982;2023-01-01T08:19:38;0.93;;;0.50;;
47367;SDS011;34646;47.964;7.982;2023-01-01T08:25:39;1.17;;;0.70;;
47367;SDS011;34646;47.964;7.982;2023-01-01T08:31:40;2.13;;;0.57;;
47367;SDS011;34646;47.964;7.982;2023-01-01T08:37:41;0.77;;;0.50;;
47367;SDS011;34646;47.964;7.982;2023-01-01T08:43:42;1.20;;;0.70;;
47367;SDS011;34646;47.964;7.982;2023-01-01T08:49:43;1.07;;;0.70;;
47367;SDS011;34646;47.964;7.982;2023-01-01T08:55:44;0.87;;;0.57;;
47367;SDS011;34646;47.964;7.982;2023-01-01T09:01:55;1.30;;;0.55;;
47367;SDS011;34646;47.964;7.982;2023-01-01T09:07:56;0.67;;;0.50;;
47367;SDS011;34646;47.964;7.982;2023-01-01T09:13:57;0.53;;;0.40;;
47367;SDS011;34646;47.964;7.982;2023-01-01T09:19:58;0.73;;;0.50;;
47367;SDS011;34646;47.964;7.982;2023-01-01T09:26:05;1.57;;;0.57;;
47367;SDS011;34646;47.964;7.982;2023-01-01T09:32:08;1.00;;;0.60;;
47367;SDS011;34646;47.964;7.982;2023-01-01T09:38:09;1.50;;;0.53;;
47367;SDS011;34646;47.964;7.982;2023-01-01T09:50:15;1.10;;;0.60;;
47367;SDS011;34646;47.964;7.982;2023-01-01T09:56:23;0.88;;;0.60;;
47367;SDS011;34646;47.964;7.982;2023-01-01T10:02:38;0.98;;;0.60;;
47367;SDS011;34646;47.964;7.982;2023-01-01T10:15:13;1.05;;;0.60;;
47367;SDS011;34646;47.964;7.982;2023-01-01T10:21:18;1.30;;;0.70;;
47367;SDS011;34646;47.964;7.982;2023-01-01T10:27:43;0.80;;;0.45;;
47367;SDS011;34646;47.964;7.982;2023-01-01T10:33:47;0.90;;;0.60;;
47367;SDS011;34646;47.964;7.982;2023-01-01T10:39:48;1.50;;;0.50;;
47367;SDS011;34646;47.964;7.982;2023-01-01T10:45:49;1.30;;;0.82;;
47367;SDS011;34646;47.964;7.982;2023-01-01T10:51:52;1.10;;;0.73;;
47367;SDS011;34646;47.964;7.982;2023-01-01T10:57:53;1.20;;;0.70;;
47367;SDS011;34646;47.964;7.982;2023-01-01T11:04:02;1.07;;;0.60;;
47367;SDS011;34646;47.964;7.982;2023-01-01T11:10:22;1.05;;;0.57;;
47367;SDS011;34646;47.964;7.982;2023-01-01T11:16:25;1.13;;;0.63;;
47367;SDS011;34646;47.964;7.982;2023-01-01T11:28:58;0.90;;;0.60;;
47367;SDS011;34646;47.964;7.982;2023-01-01T11:35:00;1.00;;;0.50;;
47367;SDS011;34646;47.964;7.982;2023-01-01T11:41:05;0.98;;;0.55;;
47367;SDS011;34646;47.964;7.982;2023-01-01T11:59:24;1.10;;;0.60;;
47367;SDS011;34646;47.964;7.982;2023-01-01T12:18:12;0.90;;;0.52;;
47367;SDS011;34646;47.964;7.982;2023-01-01T12:24:21;1.23;;;0.60;;
47367;SDS011;34646;47.964;7.982;2023-01-01T12:30:23;1.00;;;0.67;;
47367;SDS011;34646;47.964;7.982;2023-01-01T12:37:03;1.00;;;0.65;;
47367;SDS011;34646;47.964;7.982;2023-01-01T12:43:42;0.80;;;0.50;;
47367;SDS011;34646;47.964;7.982;2023-01-01T13:02:54;0.73;;;0.55;;
47367;SDS011;34646;47.964;7.982;2023-01-01T13:09:03;0.88;;;0.60;;
47367;SDS011;34646;47.964;7.982;2023-01-01T13:21:43;1.20;;;0.57;;
47367;SDS011;34646;47.964;7.982;2023-01-01T13:40:47;0.63;;;0.40;;
47367;SDS011;34646;47.964;7.982;2023-01-01T13:47:01;0.80;;;0.45;;
47367;SDS011;34646;47.964;7.982;2023-01-01T13:53:22;0.73;;;0.40;;
47367;SDS011;34646;47.964;7.982;2023-01-01T14:11:31;0.87;;;0.47;;
47367;SDS011;34646;47.964;7.982;2023-01-01T14:17:32;0.57;;;0.30;;
47367;SDS011;34646;47.964;7.982;2023-01-01T14:23:34;4.93;;;0.40;;
47367;SDS011;34646;47.964;7.982;2023-01-01T14:29:39;11.15;;;0.98;;
47367;SDS011;34646;47.964;7.982;2023-01-01T14:35:49;3.40;;;0.70;;
47367;SDS011;34646;47.964;7.982;2023-01-01T14:41:51;1.65;;;0.68;;
47367;SDS011;34646;47.964;7.982;2023-01-01T14:47:54;5.28;;;0.65;;
47367;SDS011;34646;47.964;7.982;2023-01-01T15:06:00;5.82;;;1.00;;
47367;SDS011;34646;47.964;7.982;2023-01-01T15:12:01;5.55;;;1.08;;
47367;SDS011;34646;47.964;7.982;2023-01-01T15:18:02;3.30;;;0.70;;
47367;SDS011;34646;47.964;7.982;2023-01-01T15:24:06;1.60;;;0.60;;
47367;SDS011;34646;47.964;7.982;2023-01-01T15:30:26;3.10;;;0.82;;
47367;SDS011;34646;47.964;7.982;2023-01-01T15:36:30;5.38;;;0.70;;
47367;SDS011;34646;47.964;7.982;2023-01-01T15:42:38;5.18;;;0.70;;
47367;SDS011;34646;47.964;7.982;2023-01-01T15:48:47;2.00;;;0.70;;
47367;SDS011;34646;47.964;7.982;2023-01-01T15:54:49;3.22;;;0.60;;
47367;SDS011;34646;47.964;7.982;2023-01-01T16:00:54;1.40;;;0.57;;
47367;SDS011;34646;47.964;7.982;2023-01-01T16:06:59;6.65;;;0.70;;
47367;SDS011;34646;47.964;7.982;2023-01-01T16:13:00;2.43;;;1.00;;
47367;SDS011;34646;47.964;7.982;2023-01-01T16:19:01;9.90;;;0.57;;
47367;SDS011;34646;47.964;7.982;2023-01-01T16:25:05;1.23;;;0.60;;
47367;SDS011;34646;47.964;7.982;2023-01-01T16:31:20;3.10;;;0.60;;
47367;SDS011;34646;47.964;7.982;2023-01-01T16:37:24;1.08;;;0.68;;
47367;SDS011;34646;47.964;7.982;2023-01-01T16:43:25;1.40;;;0.50;;
47367;SDS011;34646;47.964;7.982;2023-01-01T16:55:27;5.40;;;0.75;;
47367;SDS011;34646;47.964;7.982;2023-01-01T17:01:28;5.70;;;1.10;;
47367;SDS011;34646;47.964;7.982;2023-01-01T17:07:29;7.30;;;0.90;;
47367;SDS011;34646;47.964;7.982;2023-01-01T17:13:31;3.67;;;1.00;;
47367;SDS011;34646;47.964;7.982;2023-01-01T17:19:35;10.13;;;1.27;;
47367;SDS011;34646;47.964;7.982;2023-01-01T17:25:37;6.18;;;1.23;;
47367;SDS011;34646;47.964;7.982;2023-01-01T17:31:38;3.57;;;0.97;;
47367;SDS011;34646;47.964;7.982;2023-01-01T17:37:39;11.73;;;1.35;;
47367;SDS011;34646;47.964;7.982;2023-01-01T17:43:41;7.60;;;1.43;;
47367;SDS011;34646;47.964;7.982;2023-01-01T17:49:43;3.72;;;0.73;;
47367;SDS011;34646;47.964;7.982;2023-01-01T17:55:44;3.67;;;1.20;;
47367;SDS011;34646;47.964;7.982;2023-01-01T18:01:45;8.27;;;1.60;;
47367;SDS011;34646;47.964;7.982;2023-01-01T18:07:46;5.07;;;1.30;;
47367;SDS011;34646;47.964;7.982;2023-01-01T18:13:47;8.23;;;1.30;;
47367;SDS011;34646;47.964;7.982;2023-01-01T18:19:48;5.43;;;1.20;;
47367;SDS011;34646;47.964;7.982;2023-01-01T18:25:50;9.70;;;1.10;;
47367;SDS011;34646;47.964;7.982;2023-01-01T18:31:51;3.10;;;1.40;;
47367;SDS011;34646;47.964;7.982;2023-01-01T18:37:52;12.40;;;1.30;;
47367;SDS011;34646;47.964;7.982;2023-01-01T18:43:53;4.77;;;1.10;;
47367;SDS011;34646;47.964;7.982;2023-01-01T18:49:58;6.27;;;1.40;;
47367;SDS011;34646;47.964;7.982;2023-01-01T18:56:13;5.90;;;1.75;;
47367;SDS011;34646;47.964;7.982;2023-01-01T19:02:28;4.53;;;1.33;;
47367;SDS011;34646;47.964;7.982;2023-01-01T19:08:37;7.78;;;1.35;;
47367;SDS011;34646;47.964;7.982;2023-01-01T19:14:38;6.65;;;1.15;;
47367;SDS011;34646;47.964;7.982;2023-01-01T19:20:40;5.78;;;1.90;;
47367;SDS011;34646;47.964;7.982;2023-01-01T19:26:41;10.17;;;2.00;;
47367;SDS011;34646;47.964;7.982;2023-01-01T19:38:46;10.95;;;2.88;;
47367;SDS011;34646;47.964;7.982;2023-01-01T19:44:47;14.53;;;4.30;;
47367;SDS011;34646;47.964;7.982;2023-01-01T19:50:48;10.37;;;2.93;;
47367;SDS011;34646;47.964;7.982;2023-01-01T19:56:50;13.25;;;3.33;;
47367;SDS011;34646;47.964;7.982;2023-01-01T20:02:51;12.17;;;3.03;;
47367;SDS011;34646;47.964;7.982;2023-01-01T20:08:52;9.30;;;3.07;;
47367;SDS011;34646;47.964;7.982;2023-01-01T20:14:53;11.65;;;3.67;;
47367;SDS011;34646;47.964;7.982;2023-01-01T20:20:55;7.85;;;3.08;;
47367;SDS011;34646;47.964;7.982;2023-01-01T20:27:15;12.93;;;3.53;;
47367;SDS011;34646;47.964;7.982;2023-01-01T20:33:25;9.57;;;3.20;;
47367;SDS011;34646;47.964;7.982;2023-01-01T20:39:27;11.32;;;3.60;;
47367;SDS011;34646;47.964;7.982;2023-01-01T20:45:28;14.10;;;3.50;;
47367;SDS011;34646;47.964;7.982;2023-01-01T20:51:30;11.35;;;3.58;;
47367;SDS011;34646;47.964;7.982;2023-01-01T20:57:31;12.97;;;4.10;;
47367;SDS011;34646;47.964;7.982;2023-01-01T21:03:32;9.77;;;3.27;;
47367;SDS011;34646;47.964;7.982;2023-01-01T21:09:34;10.63;;;3.13;;
47367;SDS011;34646;47.964;7.982;2023-01-01T21:15:35;9.30;;;3.80;;
47367;SDS011;34646;47.964;7.982;2023-01-01T21:27:43;8.65;;;3.30;;
47367;SDS011;34646;47.964;7.982;2023-01-01T21:33:44;13.77;;;3.97;;
47367;SDS011;34646;47.964;7.982;2023-01-01T21:39:45;8.43;;;3.45;;
47367;SDS011;34646;47.964;7.982;2023-01-01T21:45:46;10.20;;;3.53;;
47367;SDS011;34646;47.964;7.982;2023-01-01T21:51:48;9.80;;;2.92;;
47367;SDS011;34646;47.964;7.982;2023-01-01T21:57:54;10.40;;;3.45;;
47367;SDS011;34646;47.964;7.982;2023-01-01T22:10:35;9.40;;;3.75;;
47367;SDS011;34646;47.964;7.982;2023-01-01T22:16:37;8.85;;;2.78;;
47367;SDS011;34646;47.964;7.982;2023-01-01T22:22:39;14.10;;;3.58;;
47367;SDS011;34646;47.964;7.982;2023-01-01T22:28:41;5.32;;;2.33;;
47367;SDS011;34646;47.964;7.982;2023-01-01T22:34:43;8.02;;;3.30;;
47367;SDS011;34646;47.964;7.982;2023-01-01T22:40:48;8.10;;;2.70;;
47367;SDS011;34646;47.964;7.982;2023-01-01T22:46:50;7.63;;;3.50;;
47367;SDS011;34646;47.964;7.982;2023-01-01T22:52:52;8.43;;;2.92;;
47367;SDS011;34646;47.964;7.982;2023-01-01T22:58:53;6.73;;;3.17;;
47367;SDS011;34646;47.964;7.982;2023-01-01T23:04:55;7.55;;;2.95;;
47367;SDS011;34646;47.964;7.982;2023-01-01T23:10:56;5.50;;;2.90;;
47367;SDS011;34646;47.964;7.982;2023-01-01T23:16:59;8.30;;;3.20;;
47367;SDS011;34646;47.964;7.982;2023-01-01T23:23:01;6.38;;;3.30;;
47367;SDS011;34646;47.964;7.982;2023-01-01T23:29:02;6.60;;;2.90;;
47367;SDS011;34646;47.964;7.982;2023-01-01T23:35:03;5.70;;;2.63;;
47367;SDS011;34646;47.964;7.982;2023-01-01T23:41:04;5.82;;;2.67;;
47367;SDS011;34646;47.964;7.982;2023-01-01T23:47:05;7.97;;;3.03;;
47367;SDS011;34646;47.964;7.982;2023-01-01T23:53:07;8.32;;;2.95;;
47367;SDS011;34646;47.964;7.982;2023-01-01T23:59:08;8.03;;;2.83;;
